Terminal Aerodrome Forecast
Issued by NWS Cleveland, OH

Home | Current Version | Previous Version | Text Only | Print | Product List | Glossary Off
Versions: 1 2 3 4 5 6 7 8 9 10 11 12 13 14

000
FTUS41 KCLE 251740
TAFCAK
TAF
KCAK 251740Z 2518/2618 28010KT P6SM SCT035 BKN060
     FM252300 23005KT P6SM BKN050
     FM261500 28008KT P6SM BKN035=

USA.gov is the U.S. government's official web portal to all federal, state and local government web resources and services.